Time;durP1;ratioP1;P1;durP2;ratioP2;P2;SDS_P1;SDS_P2;PMS_P1;PMS_P2;Temp;Humidity;BMP_temperature;BMP_pressure;BME280_temperature;BME280_humidity;BME280_pressure;Samples;Min_cycle;Max_cycle;Signal;HPM_P1;HPM_P2
2021/06/24 00:00:53;;;;;;;2.35;0.77;;;;;;;13.03;44.36;102202.94;5021053;28;20034;-68
2021/06/24 00:03:19;;;;;;;8.48;1.15;;;;;;;12.89;44.41;102202.47;5014759;28;20173;-67
2021/06/24 00:05:46;;;;;;;4.30;1.65;;;;;;;12.83;44.96;102211.41;5015681;28;20506;-67
2021/06/24 00:08:12;;;;;;;4.40;1.30;;;;;;;12.88;45.46;102216.50;5011193;28;20064;-66
2021/06/24 00:10:40;;;;;;;1.70;0.98;;;;;;;12.78;45.21;102200.19;5011399;28;20479;-67
2021/06/24 00:13:06;;;;;;;3.95;0.93;;;;;;;12.85;45.07;102199.09;5013197;28;20124;-67
2021/06/24 00:15:33;;;;;;;3.47;1.10;;;;;;;12.87;45.53;102188.53;5014819;28;20105;-67
2021/06/24 00:17:58;;;;;;;1.70;0.60;;;;;;;12.72;45.26;102191.63;5013409;28;20029;-66
2021/06/24 00:20:24;;;;;;;3.08;1.33;;;;;;;12.86;44.96;102184.19;5019659;28;20040;-67
2021/06/24 00:22:50;;;;;;;2.00;0.95;;;;;;;12.94;44.91;102174.34;5016193;28;20306;-68
2021/06/24 00:25:16;;;;;;;6.07;1.15;;;;;;;12.99;44.79;102184.72;5015934;28;20040;-67
2021/06/24 00:27:41;;;;;;;4.68;0.95;;;;;;;12.93;45.49;102187.50;5014682;28;20390;-67
2021/06/24 00:30:08;;;;;;;3.60;0.90;;;;;;;12.92;45.03;102185.81;5014695;28;20045;-66
2021/06/24 00:32:33;;;;;;;1.73;1.13;;;;;;;12.84;45.17;102186.00;5016084;28;20017;-68
2021/06/24 00:35:01;;;;;;;1.88;1.10;;;;;;;12.81;45.49;102192.22;5015292;28;20033;-67
2021/06/24 00:37:28;;;;;;;3.88;0.77;;;;;;;12.91;45.07;102192.78;5011741;28;20385;-67
2021/06/24 00:39:54;;;;;;;3.63;1.15;;;;;;;12.91;45.43;102190.16;5014717;28;20033;-68
2021/06/24 00:42:20;;;;;;;2.88;0.80;;;;;;;12.94;45.34;102179.59;5014696;28;20040;-67
2021/06/24 00:44:46;;;;;;;5.13;1.10;;;;;;;12.98;44.82;102186.50;5013906;28;20637;-69
2021/06/24 00:47:12;;;;;;;7.03;1.65;;;;;;;12.96;45.15;102182.16;5015254;28;20038;-69
2021/06/24 00:49:37;;;;;;;2.85;0.88;;;;;;;12.87;45.44;102189.41;5018611;28;20030;-68
2021/06/24 00:52:03;;;;;;;2.05;0.82;;;;;;;12.90;45.55;102185.84;5023775;28;20037;-68
2021/06/24 00:54:29;;;;;;;3.75;0.80;;;;;;;12.93;45.13;102193.63;5015311;28;20045;-69
2021/06/24 00:56:55;;;;;;;4.25;0.80;;;;;;;12.97;45.70;102190.00;5018282;28;20350;-69
2021/06/24 00:59:22;;;;;;;1.60;0.98;;;;;;;12.75;46.19;102188.91;5003610;28;20406;-70
2021/06/24 01:01:48;;;;;;;3.83;1.27;;;;;;;12.88;45.47;102195.50;5016672;28;20071;-67
2021/06/24 01:04:19;;;;;;;4.53;1.13;;;;;;;12.95;45.68;102206.69;5012950;28;20069;-69
2021/06/24 01:06:45;;;;;;;3.13;1.23;;;;;;;12.73;45.91;102211.69;5021928;28;20042;-69
2021/06/24 01:09:12;;;;;;;3.67;1.10;;;;;;;12.53;46.70;102213.06;5019945;28;20030;-66
2021/06/24 01:11:37;;;;;;;4.80;1.33;;;;;;;12.60;46.63;102226.88;5017768;28;20068;-68
2021/06/24 01:14:03;;;;;;;8.05;1.02;;;;;;;12.64;46.71;102224.09;5022526;28;20322;-67
2021/06/24 01:16:29;;;;;;;5.13;1.10;;;;;;;12.72;46.47;102225.72;5015731;28;20434;-69
2021/06/24 01:18:55;;;;;;;2.72;1.67;;;;;;;12.76;45.94;102220.34;5015071;28;20045;-68
2021/06/24 01:21:21;;;;;;;3.55;1.60;;;;;;;12.77;45.20;102215.94;5015972;28;20446;-67
2021/06/24 01:23:47;;;;;;;5.13;1.25;;;;;;;12.74;45.80;102210.81;5015370;28;20068;-67
2021/06/24 01:26:14;;;;;;;3.53;1.50;;;;;;;12.76;45.66;102207.22;5013407;28;20105;-67
2021/06/24 01:28:41;;;;;;;4.85;1.10;;;;;;;12.90;45.20;102197.19;5012846;28;20448;-68
2021/06/24 01:31:07;;;;;;;3.38;0.90;;;;;;;12.94;45.62;102205.84;5030080;28;20022;-68
2021/06/24 01:33:33;;;;;;;1.90;1.23;;;;;;;12.92;45.40;102202.41;5017962;28;20026;-68
2021/06/24 01:36:03;;;;;;;7.53;1.30;;;;;;;12.93;45.35;102211.97;5013424;28;20293;-66
2021/06/24 01:38:32;;;;;;;4.85;1.27;;;;;;;12.87;45.34;102209.53;5013622;28;20041;-66
2021/06/24 01:41:16;;;;;;;2.38;0.88;;;;;;;12.84;45.35;102215.72;5030229;28;20382;-68
2021/06/24 01:43:42;;;;;;;4.22;0.90;;;;;;;12.89;45.65;102226.09;5013847;28;20112;-69
2021/06/24 01:46:09;;;;;;;2.53;0.80;;;;;;;12.93;45.06;102232.97;5027051;28;20026;-69
2021/06/24 01:48:35;;;;;;;4.70;1.10;;;;;;;13.01;45.13;102236.25;5012073;28;20053;-70
2021/06/24 01:51:03;;;;;;;1.90;0.60;;;;;;;12.98;45.18;102244.22;5014467;28;20032;-68
2021/06/24 01:53:29;;;;;;;4.15;0.60;;;;;;;12.93;45.46;102230.34;5015406;28;20101;-69
2021/06/24 01:55:57;;;;;;;1.88;0.93;;;;;;;12.97;45.46;102215.38;5016174;28;20026;-69
2021/06/24 01:58:26;;;;;;;3.35;1.20;;;;;;;12.96;45.80;102213.66;5010696;28;20080;-67
2021/06/24 02:01:15;;;;;;;2.58;0.60;;;;;;;12.90;45.86;102212.09;5014536;28;20328;-67
2021/06/24 02:03:49;;;;;;;2.47;0.77;;;;;;;12.91;45.87;102203.28;5016489;28;20171;-68
2021/06/24 02:06:18;;;;;;;5.30;1.02;;;;;;;12.77;46.21;102197.59;5014558;28;20040;-68
2021/06/24 02:08:47;;;;;;;1.05;0.90;;;;;;;12.80;45.74;102202.72;5015555;28;20525;-68
2021/06/24 02:11:37;;;;;;;4.35;0.40;;;;;;;12.63;45.74;102206.66;5011565;28;20034;-69
2021/06/24 02:14:05;;;;;;;2.17;0.65;;;;;;;12.81;44.94;102215.81;5017983;28;20056;-70
2021/06/24 02:16:32;;;;;;;2.25;0.45;;;;;;;12.93;45.39;102211.97;5029654;28;20026;-70
2021/06/24 02:18:58;;;;;;;5.90;0.93;;;;;;;13.00;45.28;102210.88;5017447;28;20041;-69
2021/06/24 02:21:46;;;;;;;2.35;0.40;;;;;;;13.01;45.46;102207.38;5014975;28;20046;-68
2021/06/24 02:24:14;;;;;;;1.70;0.50;;;;;;;13.00;45.13;102205.66;5012141;28;20038;-67
2021/06/24 02:26:51;;;;;;;6.38;0.80;;;;;;;12.86;45.24;102213.91;5027470;28;20057;-68
2021/06/24 02:29:37;;;;;;;2.20;0.70;;;;;;;12.77;45.71;102198.44;5013483;28;20140;-67
2021/06/24 02:32:03;;;;;;;2.10;0.68;;;;;;;12.73;46.45;102201.19;5017870;28;20029;-68
2021/06/24 02:34:52;;;;;;;2.13;0.93;;;;;;;12.73;46.11;102195.94;5014106;28;20034;-69
2021/06/24 02:37:32;;;;;;;1.70;0.70;;;;;;;12.63;46.34;102190.94;5027955;28;20031;-68
2021/06/24 02:40:36;;;;;;;4.28;0.77;;;;;;;12.72;46.39;102194.25;4975980;28;20038;-67
2021/06/24 02:43:04;;;;;;;3.75;1.08;;;;;;;12.77;46.30;102189.72;4976097;28;20038;-69
2021/06/24 02:45:40;;;;;;;2.85;1.27;;;;;;;12.63;46.35;102185.69;4999239;28;20056;-68
2021/06/24 02:48:08;;;;;;;4.63;1.20;;;;;;;12.63;45.94;102185.69;5026460;28;20112;-67
2021/06/24 02:50:35;;;;;;;1.38;1.02;;;;;;;12.57;46.56;102169.25;5013074;28;20021;-67
2021/06/24 02:53:08;;;;;;;2.05;1.15;;;;;;;12.61;46.50;102168.28;5012802;28;20063;-67
2021/06/24 02:55:34;;;;;;;3.55;0.93;;;;;;;12.61;46.25;102153.38;5010051;28;20494;-66
2021/06/24 02:58:01;;;;;;;2.15;0.80;;;;;;;12.55;46.58;102156.19;5015265;28;20044;-67
2021/06/24 03:00:45;;;;;;;2.58;1.42;;;;;;;12.45;46.64;102150.34;5013948;28;20098;-65
2021/06/24 03:03:23;;;;;;;5.55;1.05;;;;;;;12.46;46.67;102145.94;5027686;28;20316;-64
2021/06/24 03:06:12;;;;;;;2.13;1.17;;;;;;;12.46;46.81;102140.69;5003887;28;20134;-65
2021/06/24 03:08:40;;;;;;;3.22;1.25;;;;;;;12.42;46.80;102142.56;5010941;28;20101;-66
2021/06/24 03:11:07;;;;;;;3.65;1.55;;;;;;;12.44;47.51;102138.13;5014549;28;20390;-67
2021/06/24 03:13:38;;;;;;;1.77;1.15;;;;;;;12.56;46.55;102136.06;5011209;28;20541;-66
2021/06/24 03:16:04;;;;;;;5.13;2.20;;;;;;;12.37;47.18;102133.94;5012247;28;20025;-66
2021/06/24 03:18:30;;;;;;;4.22;1.58;;;;;;;12.31;46.93;102131.50;5011255;28;20041;-66
2021/06/24 03:20:57;;;;;;;4.60;1.40;;;;;;;12.42;47.69;102129.47;5026921;28;20064;-64
2021/06/24 03:23:24;;;;;;;9.02;1.90;;;;;;;12.39;47.40;102123.44;5009563;28;20029;-67
2021/06/24 03:25:52;;;;;;;7.63;2.50;;;;;;;12.36;47.28;102107.78;5010433;28;20356;-67
2021/06/24 03:28:17;;;;;;;4.60;2.00;;;;;;;12.42;47.33;102105.88;5010746;28;20121;-67
2021/06/24 03:30:59;;;;;;;1.63;1.17;;;;;;;12.42;47.56;102102.34;5009890;28;20571;-66
2021/06/24 03:33:25;;;;;;;8.25;1.30;;;;;;;12.40;47.63;102104.16;5013198;28;20652;-65
2021/06/24 03:35:52;;;;;;;8.15;1.98;;;;;;;12.40;47.05;102097.19;5014386;28;20163;-65
2021/06/24 03:38:19;;;;;;;3.80;1.27;;;;;;;12.60;47.14;102096.59;5014408;28;20121;-66
2021/06/24 03:40:45;;;;;;;2.65;1.33;;;;;;;12.57;46.91;102095.81;5014228;28;20121;-70
2021/06/24 03:43:11;;;;;;;3.88;1.35;;;;;;;12.55;47.08;102106.34;5016148;28;20064;-70
2021/06/24 03:45:37;;;;;;;4.60;1.50;;;;;;;12.45;47.44;102112.78;5013203;28;20380;-70
2021/06/24 03:48:04;;;;;;;3.30;1.30;;;;;;;12.32;47.58;102107.00;5015737;28;20454;-71
2021/06/24 03:50:31;;;;;;;2.58;1.25;;;;;;;12.31;47.81;102107.03;5014461;28;20076;-70
2021/06/24 03:52:57;;;;;;;3.97;1.30;;;;;;;12.27;47.87;102116.78;5023256;28;20029;-69
2021/06/24 03:55:40;;;;;;;2.15;1.13;;;;;;;12.32;47.57;102127.97;5022319;28;20026;-67
2021/06/24 03:58:24;;;;;;;3.67;1.55;;;;;;;12.50;46.96;102131.84;5019171;28;20040;-69
2021/06/24 04:00:53;;;;;;;4.97;1.27;;;;;;;12.62;47.03;102121.00;5018913;28;20391;-66
2021/06/24 04:03:18;;;;;;;7.85;1.38;;;;;;;12.67;46.46;102127.00;5027757;28;20034;-66
2021/06/24 04:06:03;;;;;;;5.25;0.60;;;;;;;12.76;46.83;102125.91;5016601;28;20126;-66
2021/06/24 04:08:29;;;;;;;1.75;1.25;;;;;;;12.68;47.12;102125.22;5013947;28;20044;-66
2021/06/24 04:10:55;;;;;;;5.50;1.15;;;;;;;12.64;47.07;102129.69;5016007;28;20034;-66
2021/06/24 04:13:20;;;;;;;3.08;1.38;;;;;;;12.68;47.24;102126.06;5014293;28;20038;-65
2021/06/24 04:15:47;;;;;;;2.28;0.93;;;;;;;12.84;46.75;102138.78;5014398;28;20029;-65
2021/06/24 04:18:13;;;;;;;3.10;1.65;;;;;;;12.62;47.02;102136.75;5018738;28;20021;-66
2021/06/24 04:20:44;;;;;;;4.83;1.37;;;;;;;12.73;46.70;102138.25;5015285;28;20033;-66
2021/06/24 04:23:11;;;;;;;7.00;2.47;;;;;;;12.84;46.45;102141.41;5015358;28;20289;-66
2021/06/24 04:25:44;;;;;;;2.90;1.20;;;;;;;12.93;46.77;102141.13;5013754;28;20026;-65
2021/06/24 04:28:12;;;;;;;8.20;1.45;;;;;;;12.93;46.49;102128.00;5011734;28;20041;-65
2021/06/24 04:30:47;;;;;;;2.03;0.95;;;;;;;13.10;46.04;102123.09;5023186;28;20038;-70
2021/06/24 04:33:13;;;;;;;6.35;2.20;;;;;;;12.97;46.65;102124.38;5021456;28;20120;-72
2021/06/24 04:35:55;;;;;;;3.95;1.50;;;;;;;13.07;46.73;102133.72;5019115;28;20104;-73
2021/06/24 04:38:21;;;;;;;4.05;1.67;;;;;;;12.98;46.73;102134.00;5019609;28;20153;-68
2021/06/24 04:40:53;;;;;;;5.40;2.25;;;;;;;12.95;47.15;102123.56;5018794;28;20057;-67
2021/06/24 04:43:20;;;;;;;3.20;2.03;;;;;;;12.93;47.27;102119.28;5021793;28;20395;-68
2021/06/24 04:45:47;;;;;;;4.60;1.52;;;;;;;13.13;46.99;102121.31;5015001;28;20029;-68
2021/06/24 04:48:17;;;;;;;2.40;2.10;;;;;;;13.20;46.61;102123.66;5014660;28;20112;-67
2021/06/24 04:50:46;;;;;;;6.85;2.17;;;;;;;13.19;46.73;102126.38;5013061;28;20487;-68
2021/06/24 04:53:12;;;;;;;4.45;1.77;;;;;;;13.15;46.27;102130.84;5016555;28;20087;-67
2021/06/24 04:56:04;;;;;;;2.03;1.30;;;;;;;13.01;46.72;102128.66;5016192;28;20037;-67
2021/06/24 04:58:31;;;;;;;3.60;1.33;;;;;;;13.10;46.72;102130.97;5013876;28;20056;-67
2021/06/24 05:01:15;;;;;;;4.60;1.75;;;;;;;13.20;46.60;102131.53;5014410;28;20087;-67
2021/06/24 05:03:59;;;;;;;2.35;1.85;;;;;;;13.23;46.55;102123.59;5011878;28;20096;-69
2021/06/24 05:06:27;;;;;;;5.47;1.67;;;;;;;13.31;46.40;102120.72;5015461;28;20065;-67
2021/06/24 05:08:53;;;;;;;3.50;2.20;;;;;;;13.27;46.29;102119.97;5016154;28;20060;-68
2021/06/24 05:11:18;;;;;;;2.42;1.90;;;;;;;13.12;47.03;102115.19;5014964;28;20085;-65
2021/06/24 05:13:44;;;;;;;3.38;1.55;;;;;;;13.08;47.15;102122.28;5012837;28;20057;-65
2021/06/24 05:16:10;;;;;;;5.03;3.03;;;;;;;13.18;46.86;102124.63;5013854;28;20044;-67
2021/06/24 05:18:36;;;;;;;5.55;2.50;;;;;;;12.99;47.26;102129.59;5015259;28;20044;-70
2021/06/24 05:21:02;;;;;;;4.80;2.65;;;;;;;13.04;47.00;102122.44;5012262;28;20045;-69
2021/06/24 05:23:29;;;;;;;8.38;2.15;;;;;;;12.83;47.61;102123.97;5013756;28;20079;-66
2021/06/24 05:25:54;;;;;;;5.43;2.03;;;;;;;13.05;46.76;102119.78;5014792;28;20045;-67
2021/06/24 05:28:20;;;;;;;3.47;1.27;;;;;;;13.09;46.99;102124.03;5021446;28;20498;-66
2021/06/24 05:30:47;;;;;;;4.72;1.60;;;;;;;13.07;47.00;102123.22;5009113;28;21207;-65
2021/06/24 05:33:13;;;;;;;4.13;2.03;;;;;;;13.17;46.94;102130.81;5014695;28;20048;-67
2021/06/24 05:35:39;;;;;;;3.05;1.40;;;;;;;13.35;46.86;102126.75;5013168;28;20029;-67
2021/06/24 05:38:10;;;;;;;5.20;1.77;;;;;;;13.48;46.80;102126.28;5011543;28;20057;-63
2021/06/24 05:40:36;;;;;;;3.00;1.42;;;;;;;13.35;46.71;102126.75;5014494;28;20068;-64
2021/06/24 05:43:02;;;;;;;5.00;1.70;;;;;;;13.06;46.89;102125.88;5015277;28;20053;-67
2021/06/24 05:45:28;;;;;;;3.70;1.50;;;;;;;13.06;47.21;102118.00;5020361;28;20387;-67
2021/06/24 05:47:55;;;;;;;2.45;1.13;;;;;;;13.15;47.78;102127.38;5014112;28;20148;-68
2021/06/24 05:50:22;;;;;;;3.15;1.00;;;;;;;12.65;48.12;102120.06;5014755;28;20088;-66
2021/06/24 05:52:48;;;;;;;2.78;1.00;;;;;;;12.85;47.75;102123.00;5013366;28;20116;-66
2021/06/24 05:55:13;;;;;;;3.13;1.27;;;;;;;13.02;46.88;102130.34;5013666;28;20547;-65
2021/06/24 05:57:39;;;;;;;4.10;1.15;;;;;;;13.19;47.20;102121.13;5012015;28;20049;-65
2021/06/24 06:00:06;;;;;;;2.47;1.02;;;;;;;13.30;46.78;102127.75;5014602;28;20037;-67
2021/06/24 06:02:40;;;;;;;2.30;0.65;;;;;;;13.43;46.39;102120.34;5012729;28;20679;-66
2021/06/24 06:05:06;;;;;;;3.03;0.82;;;;;;;13.57;46.22;102119.06;5016489;28;20038;-65
2021/06/24 06:07:33;;;;;;;2.58;0.90;;;;;;;13.50;46.16;102121.84;5013472;28;20042;-66
2021/06/24 06:09:58;;;;;;;1.40;1.05;;;;;;;13.37;46.57;102127.56;5010601;28;20030;-66
2021/06/24 06:12:26;;;;;;;5.10;2.00;;;;;;;13.38;46.71;102114.34;5013272;28;20120;-67
2021/06/24 06:14:51;;;;;;;6.00;1.20;;;;;;;13.36;47.38;102112.69;5015700;28;20457;-67
2021/06/24 06:17:17;;;;;;;1.95;1.23;;;;;;;13.46;46.98;102116.75;5016965;28;20042;-66
2021/06/24 06:19:44;;;;;;;3.38;1.40;;;;;;;13.38;47.11;102116.13;5013384;28;20057;-64
2021/06/24 06:22:09;;;;;;;3.40;1.50;;;;;;;13.42;46.54;102123.84;5019727;28;20036;-64
2021/06/24 06:24:35;;;;;;;2.20;1.52;;;;;;;13.63;46.39;102121.47;5016633;28;20041;-65
2021/06/24 06:27:00;;;;;;;4.05;1.80;;;;;;;13.21;47.31;102111.44;5009984;28;20048;-67
2021/06/24 06:29:26;;;;;;;2.47;1.30;;;;;;;13.48;46.52;102112.31;5019938;28;20076;-67
2021/06/24 06:31:51;;;;;;;3.17;0.90;;;;;;;13.77;46.54;102110.53;5016170;28;20040;-67
2021/06/24 06:34:17;;;;;;;7.13;1.40;;;;;;;13.95;45.22;102102.00;5009766;28;20033;-66
2021/06/24 06:36:42;;;;;;;6.05;1.50;;;;;;;13.83;45.98;102105.91;5013619;28;20080;-64
2021/06/24 06:39:08;;;;;;;3.03;1.63;;;;;;;13.57;46.63;102108.56;5011473;28;20041;-65
2021/06/24 06:41:34;;;;;;;6.25;1.58;;;;;;;13.86;45.61;102108.41;5015805;28;20577;-66
2021/06/24 06:43:59;;;;;;;4.80;1.30;;;;;;;13.53;46.98;102105.97;5013456;28;20029;-67
2021/06/24 06:46:24;;;;;;;1.92;1.35;;;;;;;14.00;45.51;102099.19;5012388;28;20570;-67
2021/06/24 06:48:50;;;;;;;4.20;1.30;;;;;;;14.01;45.59;102106.16;5012841;28;20107;-67
2021/06/24 06:51:16;;;;;;;3.42;1.35;;;;;;;14.07;45.37;102098.06;5012560;28;20068;-69
2021/06/24 06:53:41;;;;;;;2.58;1.30;;;;;;;14.17;45.08;102102.09;5018712;28;20034;-67
2021/06/24 06:56:06;;;;;;;1.80;1.30;;;;;;;14.36;44.32;102103.13;5012930;28;20096;-67
2021/06/24 06:58:32;;;;;;;1.40;0.90;;;;;;;14.47;44.10;102094.03;5014300;28;20445;-65
2021/06/24 07:01:00;;;;;;;1.60;0.80;;;;;;;14.02;44.86;102102.63;5010992;28;20121;-64
2021/06/24 07:03:26;;;;;;;4.00;0.70;;;;;;;14.30;43.84;102105.13;5013801;28;20030;-65
2021/06/24 07:05:51;;;;;;;2.20;0.75;;;;;;;14.28;43.61;102101.72;5011457;28;20045;-67
2021/06/24 07:08:17;;;;;;;1.30;0.60;;;;;;;14.35;44.06;102104.06;5018983;28;20034;-67
2021/06/24 07:10:42;;;;;;;2.17;0.77;;;;;;;14.43;43.99;102097.69;5010749;28;20074;-67
2021/06/24 07:13:08;;;;;;;1.90;0.63;;;;;;;14.72;43.37;102104.47;5012293;28;20065;-65
2021/06/24 07:15:33;;;;;;;5.18;1.17;;;;;;;14.84;43.31;102103.19;5013501;28;20529;-66
2021/06/24 07:17:59;;;;;;;3.13;0.95;;;;;;;14.47;43.82;102104.56;5017930;28;20121;-69
2021/06/24 07:20:24;;;;;;;5.50;0.82;;;;;;;14.85;43.47;102104.88;5013280;28;20036;-66
2021/06/24 07:22:50;;;;;;;2.13;0.55;;;;;;;14.70;43.49;102107.19;5009843;28;20053;-66
2021/06/24 07:25:18;;;;;;;3.50;0.93;;;;;;;14.77;43.44;102107.81;5014221;28;20041;-67
2021/06/24 07:27:45;;;;;;;2.40;0.88;;;;;;;14.74;43.09;102102.66;5014128;28;20118;-67
2021/06/24 07:30:11;;;;;;;2.17;1.02;;;;;;;14.67;43.17;102107.28;5015352;28;20115;-67
2021/06/24 07:32:37;;;;;;;2.95;0.50;;;;;;;14.32;44.37;102106.81;5014414;28;20123;-67
2021/06/24 07:35:04;;;;;;;4.88;1.52;;;;;;;14.41;44.24;102112.66;5013925;28;20049;-67
2021/06/24 07:37:30;;;;;;;6.13;0.82;;;;;;;14.18;44.58;102114.31;5012815;28;20042;-66
2021/06/24 07:39:55;;;;;;;1.60;0.38;;;;;;;14.65;44.26;102118.78;5014949;28;20025;-67
2021/06/24 07:42:21;;;;;;;2.70;0.65;;;;;;;14.65;43.66;102109.13;5020718;28;20038;-66
2021/06/24 07:44:47;;;;;;;1.40;0.32;;;;;;;14.79;43.18;102113.88;5014756;28;20029;-66
2021/06/24 07:47:13;;;;;;;1.35;0.63;;;;;;;14.82;43.31;102110.28;5019052;28;20420;-66
2021/06/24 07:49:39;;;;;;;2.40;0.40;;;;;;;14.83;43.32;102110.19;5017149;28;20033;-66
2021/06/24 07:52:07;;;;;;;0.90;0.30;;;;;;;14.97;43.00;102110.53;5022502;28;20040;-66
2021/06/24 07:54:35;;;;;;;6.70;0.52;;;;;;;15.04;41.69;102105.88;5018122;28;20486;-65
2021/06/24 07:57:01;;;;;;;3.65;0.57;;;;;;;15.12;42.33;102105.56;5017836;28;20029;-66
2021/06/24 07:59:26;;;;;;;0.77;0.28;;;;;;;15.32;41.06;102110.06;5011297;28;20499;-66
2021/06/24 08:01:52;;;;;;;5.15;0.38;;;;;;;15.36;41.62;102107.25;5014743;28;20021;-66
2021/06/24 08:04:17;;;;;;;4.95;0.60;;;;;;;15.20;41.69;102110.53;5028680;28;20387;-65
2021/06/24 08:06:42;;;;;;;6.03;1.13;;;;;;;15.43;41.39;102102.59;5013263;28;20037;-69
2021/06/24 08:09:10;;;;;;;2.08;0.47;;;;;;;15.45;41.23;102110.44;5014695;28;20032;-66
2021/06/24 08:11:36;;;;;;;1.58;0.60;;;;;;;15.57;40.41;102110.78;5018813;28;20519;-65
2021/06/24 08:14:02;;;;;;;1.67;0.68;;;;;;;15.40;40.24;102113.25;5013351;28;20037;-65
2021/06/24 08:16:28;;;;;;;4.07;0.85;;;;;;;15.18;42.08;102124.63;5013478;28;20081;-65
2021/06/24 08:18:54;;;;;;;1.60;0.73;;;;;;;14.79;42.63;102115.63;5010525;28;20038;-66
2021/06/24 08:21:19;;;;;;;3.72;0.90;;;;;;;14.69;42.92;102121.25;5012090;28;20445;-66
2021/06/24 08:23:45;;;;;;;1.38;0.50;;;;;;;14.22;43.89;102110.66;5012424;28;20053;-67
2021/06/24 08:26:10;;;;;;;1.38;1.27;;;;;;;14.48;43.33;102116.81;5013706;28;20228;-67
2021/06/24 08:28:36;;;;;;;6.15;0.57;;;;;;;14.25;43.95;102118.44;5016455;28;20037;-66
2021/06/24 08:31:01;;;;;;;2.97;0.50;;;;;;;14.20;44.13;102116.91;5012818;28;20356;-66
2021/06/24 08:33:27;;;;;;;2.47;0.30;;;;;;;14.34;43.85;102110.25;5028032;28;20119;-66
2021/06/24 08:35:53;;;;;;;2.85;0.28;;;;;;;14.05;44.65;102118.28;5010858;28;20541;-67
2021/06/24 08:38:18;;;;;;;1.95;0.20;;;;;;;14.28;43.91;102115.72;5012375;28;20464;-66
2021/06/24 08:40:46;;;;;;;3.42;1.00;;;;;;;14.64;43.29;102117.94;5011035;28;20029;-65
2021/06/24 08:43:12;;;;;;;2.08;1.27;;;;;;;14.80;42.08;102117.38;5011400;28;20109;-67
2021/06/24 08:45:41;;;;;;;4.28;0.47;;;;;;;15.00;42.52;102108.69;5010754;28;20038;-67
2021/06/24 08:48:16;;;;;;;4.05;0.40;;;;;;;14.87;42.61;102113.56;5013587;28;20041;-67
2021/06/24 08:50:50;;;;;;;3.42;0.90;;;;;;;14.84;43.43;102113.69;5010480;28;20053;-67
2021/06/24 08:53:19;;;;;;;0.82;0.40;;;;;;;14.93;43.31;102118.59;5010979;28;20108;-65
2021/06/24 08:55:50;;;;;;;10.40;4.00;;;;;;;15.09;42.97;102109.19;5009202;28;20041;-67
2021/06/24 08:58:16;;;;;;;1.00;0.30;;;;;;;14.88;42.30;102105.63;5011010;28;20026;-67
2021/06/24 09:00:42;;;;;;;2.25;0.30;;;;;;;15.11;43.23;102106.50;5014369;28;20068;-66
2021/06/24 09:03:16;;;;;;;5.05;0.32;;;;;;;15.02;42.67;102105.09;5012460;28;20037;-64
2021/06/24 09:05:51;;;;;;;2.72;0.77;;;;;;;15.18;41.68;102108.81;5035155;28;20029;-66
2021/06/24 09:08:23;;;;;;;10.27;1.08;;;;;;;14.89;42.50;102107.31;5013975;28;20044;-67
2021/06/24 09:11:15;;;;;;;3.50;0.52;;;;;;;15.03;42.99;102109.41;5011930;28;20556;-67
2021/06/24 09:13:42;;;;;;;1.25;0.57;;;;;;;15.20;42.32;102105.28;5019007;28;20038;-67
2021/06/24 09:16:24;;;;;;;1.42;0.40;;;;;;;15.03;43.12;102109.41;5011416;28;20061;-66
2021/06/24 09:19:12;;;;;;;1.17;0.70;;;;;;;15.16;42.49;102105.38;5011118;28;20040;-65
2021/06/24 09:21:37;;;;;;;1.13;0.35;;;;;;;15.34;42.14;102110.88;5007950;28;20041;-67
2021/06/24 09:24:49;;;;;;;5.97;0.50;;;;;;;15.34;42.38;102108.22;5011282;28;20029;-65
2021/06/24 09:27:18;;;;;;;1.23;0.30;;;;;;;15.53;42.47;102109.19;5006220;28;20477;-67
2021/06/24 09:29:52;;;;;;;0.82;0.40;;;;;;;15.60;41.92;102109.81;5009268;28;20049;-66
2021/06/24 09:32:37;;;;;;;3.63;0.47;;;;;;;16.02;41.09;102105.41;5008945;28;22029;-67
2021/06/24 09:35:05;;;;;;;3.88;0.55;;;;;;;16.16;40.81;102103.03;5011188;28;20410;-67
2021/06/24 09:37:59;;;;;;;2.00;0.40;;;;;;;16.54;39.98;102100.47;5013334;28;20124;-66
2021/06/24 09:40:47;;;;;;;0.50;0.20;;;;;;;16.38;40.14;102097.66;5010140;28;20030;-66
2021/06/24 09:43:26;;;;;;;1.50;0.20;;;;;;;16.39;39.69;102094.09;5010917;28;20103;-66
2021/06/24 09:46:03;;;;;;;1.05;0.32;;;;;;;16.39;40.36;102094.94;5012534;28;20034;-64
2021/06/24 09:48:34;;;;;;;3.15;0.35;;;;;;;16.71;40.05;102105.81;5023639;28;20120;-65
2021/06/24 09:51:15;;;;;;;2.50;0.70;;;;;;;16.36;39.64;102102.16;5024951;28;20068;-66
2021/06/24 09:54:05;;;;;;;0.90;0.20;;;;;;;16.09;40.80;102098.97;5054869;22;20052;-72
2021/06/24 09:56:35;;;;;;;2.30;0.25;;;;;;;16.04;40.75;102093.03;5061524;28;20382;-71
2021/06/24 09:59:03;;;;;;;1.65;0.30;;;;;;;16.14;40.32;102095.19;5048636;28;20029;-71
2021/06/24 10:01:42;;;;;;;3.53;0.55;;;;;;;16.34;39.85;102093.44;5037519;28;20045;-71
2021/06/24 10:04:31;;;;;;;1.20;0.47;;;;;;;16.30;40.87;102089.22;5050453;28;20548;-71
2021/06/24 10:06:59;;;;;;;2.25;0.40;;;;;;;16.47;39.44;102091.13;5043309;28;20032;-71
2021/06/24 10:09:25;;;;;;;1.13;0.10;;;;;;;16.49;39.67;102090.13;5041112;28;20041;-71
2021/06/24 10:11:52;;;;;;;2.78;0.40;;;;;;;16.25;40.01;102096.50;5054794;28;20031;-71
2021/06/24 10:14:21;;;;;;;0.50;0.20;;;;;;;16.38;39.56;102087.13;5049620;28;20034;-71
2021/06/24 10:16:58;;;;;;;1.02;0.20;;;;;;;16.07;40.15;102082.34;5037070;28;20033;-71
2021/06/24 10:19:29;;;;;;;2.38;0.52;;;;;;;16.21;40.64;102090.50;5042252;28;20040;-71
2021/06/24 10:22:15;;;;;;;1.52;0.20;;;;;;;16.02;39.73;102085.19;5044563;28;20032;-72
2021/06/24 10:24:52;;;;;;;8.48;0.25;;;;;;;16.00;40.20;102093.16;5035456;28;20047;-71
2021/06/24 10:27:18;;;;;;;1.05;0.30;;;;;;;15.71;41.02;102090.91;5019016;28;20048;-71
2021/06/24 10:29:52;;;;;;;0.93;0.20;;;;;;;15.97;40.54;102090.63;5039695;28;20044;-71
2021/06/24 10:32:23;;;;;;;0.70;0.30;;;;;;;15.94;40.91;102092.53;5052786;28;20138;-70
2021/06/24 10:34:51;;;;;;;3.33;0.20;;;;;;;15.98;40.52;102089.69;5043885;28;20140;-70
2021/06/24 10:37:22;;;;;;;0.70;0.30;;;;;;;15.83;41.44;102086.88;5035022;28;21217;-71
2021/06/24 10:39:48;;;;;;;0.82;0.30;;;;;;;15.68;41.64;102093.66;5046277;28;20179;-71
2021/06/24 10:42:15;;;;;;;2.38;0.55;;;;;;;15.70;41.37;102091.81;5047070;28;20064;-71
2021/06/24 10:44:47;;;;;;;0.60;0.30;;;;;;;15.72;40.82;102092.59;5037954;28;20043;-71
2021/06/24 10:47:20;;;;;;;3.10;0.43;;;;;;;15.62;41.25;102086.88;5046342;28;20044;-70
2021/06/24 10:49:45;;;;;;;1.33;0.68;;;;;;;15.73;41.93;102083.78;5034055;28;20044;-71
2021/06/24 10:52:25;;;;;;;0.98;0.30;;;;;;;15.78;41.30;102090.56;5046790;28;20029;-71
2021/06/24 10:54:56;;;;;;;2.20;0.35;;;;;;;15.80;41.21;102091.34;5041544;28;20382;-71
2021/06/24 10:57:35;;;;;;;0.43;0.20;;;;;;;15.85;41.07;102093.78;5038272;28;20087;-71
2021/06/24 11:00:32;;;;;;;3.40;0.40;;;;;;;15.79;40.81;102088.78;5053389;28;20037;-71
2021/06/24 11:03:00;;;;;;;1.02;0.35;;;;;;;15.83;41.02;102086.88;5035447;28;20039;-71
2021/06/24 11:05:33;;;;;;;7.35;0.30;;;;;;;15.95;40.59;102084.56;5036867;28;20048;-72
2021/06/24 11:08:09;;;;;;;1.52;0.55;;;;;;;16.00;40.70;102081.75;5051863;28;20114;-71
2021/06/24 11:10:49;;;;;;;3.67;0.50;;;;;;;15.66;41.49;102084.94;5048975;28;20083;-71
2021/06/24 11:13:16;;;;;;;6.72;0.55;;;;;;;15.84;40.65;102081.56;5039071;28;20109;-72
2021/06/24 11:15:44;;;;;;;0.80;0.43;;;;;;;15.47;42.24;102083.09;5037963;28;20033;-71
2021/06/24 11:18:09;;;;;;;1.88;0.47;;;;;;;15.59;41.60;102087.00;5046299;28;20036;-71
2021/06/24 11:20:42;;;;;;;2.95;0.70;;;;;;;15.77;41.38;102087.97;5050977;28;20037;-71
2021/06/24 11:23:35;;;;;;;0.63;0.40;;;;;;;15.64;41.72;102089.44;5054083;28;20028;-72
2021/06/24 11:26:04;;;;;;;1.55;0.88;;;;;;;15.40;41.98;102083.44;5034862;28;20029;-71
2021/06/24 11:28:42;;;;;;;3.17;0.80;;;;;;;15.52;41.97;102082.91;5040287;28;20029;-71
2021/06/24 11:31:08;;;;;;;2.08;0.43;;;;;;;15.45;42.08;102090.22;5040235;28;20071;-71
2021/06/24 11:33:37;;;;;;;0.55;0.30;;;;;;;15.47;41.66;102080.47;5051336;28;20047;-71
2021/06/24 11:36:12;;;;;;;1.25;0.45;;;;;;;15.58;41.44;102078.22;5047489;28;20171;-72